Time;durP1;ratioP1;P1;durP2;ratioP2;P2;SDS_P1;SDS_P2;PMS_P1;PMS_P2;Temp;Humidity;BMP_temperature;BMP_pressure;BME280_temperature;BME280_humidity;BME280_pressure;Samples;Min_cycle;Max_cycle;Signal;HPM_P1;HPM_P2
2023/03/16 04:47:02;;;;;;;8.13;4.30;;;;;;;1.00;78.92;100639.94;5269465;33;20106;-86
2023/03/16 04:50:09;;;;;;;13.65;4.75;;;;;;;1.00;77.93;100653.19;5264166;33;35054;-90
2023/03/16 04:53:12;;;;;;;8.00;4.90;;;;;;;1.12;76.89;100655.81;5258576;33;33794;-89
2023/03/16 04:56:18;;;;;;;8.80;4.45;;;;;;;1.13;77.27;100654.00;5244719;33;33636;-87
2023/03/16 04:59:22;;;;;;;6.95;3.92;;;;;;;1.18;75.91;100666.94;5248109;33;34516;-86
2023/03/16 05:02:26;;;;;;;7.82;4.62;;;;;;;1.31;75.14;100660.63;5259494;33;33653;-86
2023/03/16 05:05:29;;;;;;;7.05;4.43;;;;;;;1.36;74.63;100673.56;5255810;33;35580;-86
2023/03/16 05:08:33;;;;;;;7.97;4.43;;;;;;;1.42;74.68;100677.56;5242988;33;34652;-86
2023/03/16 05:11:36;;;;;;;8.90;4.10;;;;;;;1.36;75.93;100681.50;5246237;33;33615;-86
2023/03/16 05:14:40;;;;;;;11.82;4.47;;;;;;;1.45;74.71;100675.53;5266825;33;33834;-86
2023/03/16 05:17:43;;;;;;;7.97;4.40;;;;;;;1.49;74.23;100682.31;5246861;33;34178;-86
2023/03/16 05:20:54;;;;;;;6.90;4.07;;;;;;;1.59;74.00;100685.16;5234078;33;33968;-86
2023/03/16 05:23:58;;;;;;;6.75;4.68;;;;;;;1.64;74.19;100685.66;5243095;33;34780;-86
2023/03/16 05:27:02;;;;;;;12.00;5.15;;;;;;;1.62;74.54;100689.38;5255872;33;33734;-86
2023/03/16 05:30:05;;;;;;;9.63;4.45;;;;;;;1.63;75.31;100688.41;5242486;33;34744;-85
2023/03/16 05:33:09;;;;;;;6.32;4.37;;;;;;;1.84;72.39;100689.47;5254172;33;34904;-85
2023/03/16 05:36:12;;;;;;;9.88;5.53;;;;;;;1.92;72.89;100700.38;5255518;33;34091;-85
2023/03/16 05:39:16;;;;;;;9.98;4.68;;;;;;;1.96;73.14;100696.53;5243066;33;34551;-84
2023/03/16 05:42:20;;;;;;;9.32;5.15;;;;;;;2.06;71.83;100699.34;5255687;33;33925;-84
2023/03/16 05:45:23;;;;;;;9.90;5.45;;;;;;;2.20;70.49;100704.47;5230941;33;34449;-84
2023/03/16 05:48:27;;;;;;;11.60;5.82;;;;;;;2.30;71.21;100709.94;5243575;33;34005;-84
2023/03/16 05:51:31;;;;;;;12.55;4.85;;;;;;;2.43;70.33;100699.22;5241693;33;34092;-84
2023/03/16 05:54:34;;;;;;;9.07;4.93;;;;;;;2.59;69.76;100701.53;5255420;33;33962;-84
2023/03/16 05:57:37;;;;;;;9.95;5.57;;;;;;;2.74;69.37;100710.97;5231537;33;33273;-84
2023/03/16 06:00:40;;;;;;;13.62;5.37;;;;;;;2.86;68.00;100714.50;5255472;33;35185;-84
2023/03/16 06:03:46;;;;;;;5.72;4.47;;;;;;;2.89;66.92;100711.59;5242689;33;34031;-84
2023/03/16 06:06:50;;;;;;;9.50;5.15;;;;;;;3.04;66.88;100718.37;5231688;33;34690;-84
2023/03/16 06:09:53;;;;;;;12.20;5.57;;;;;;;3.17;66.02;100727.06;5242802;33;34142;-84
2023/03/16 06:12:56;;;;;;;11.20;5.07;;;;;;;3.51;65.62;100735.03;5230882;33;33884;-84
2023/03/16 06:16:05;;;;;;;8.82;4.97;;;;;;;4.26;62.47;100739.50;5242118;33;34506;-84
2023/03/16 06:19:09;;;;;;;9.07;5.25;;;;;;;5.45;57.61;100735.53;5255330;33;34304;-83
2023/03/16 06:22:13;;;;;;;10.35;4.90;;;;;;;5.81;56.58;100739.41;5253844;33;33985;-84
2023/03/16 06:25:16;;;;;;;12.18;5.43;;;;;;;5.27;56.71;100727.31;5259158;33;34750;-84
2023/03/16 06:28:21;;;;;;;10.20;5.10;;;;;;;4.80;59.15;100748.31;5271997;33;34108;-84
2023/03/16 06:31:24;;;;;;;11.20;5.15;;;;;;;4.58;59.46;100756.44;5272838;33;34005;-84
2023/03/16 06:34:30;;;;;;;8.63;4.87;;;;;;;4.60;59.40;100751.84;5260407;33;34410;-84
2023/03/16 06:37:33;;;;;;;8.82;4.97;;;;;;;4.52;58.70;100761.31;5273036;33;33817;-84
2023/03/16 06:40:36;;;;;;;8.70;5.10;;;;;;;4.48;58.78;100765.22;5275577;33;35449;-84
2023/03/16 06:43:41;;;;;;;14.75;5.53;;;;;;;4.64;58.81;100778.09;5260788;33;35419;-89
2023/03/16 06:46:44;;;;;;;11.57;4.95;;;;;;;4.88;57.69;100777.81;5249683;33;34154;-89
2023/03/16 06:49:47;;;;;;;8.63;4.82;;;;;;;4.93;57.59;100785.44;5249378;33;34543;-89
2023/03/16 06:52:50;;;;;;;10.18;5.18;;;;;;;5.02;56.67;100784.66;5259875;33;35455;-85
2023/03/16 06:55:53;;;;;;;8.43;5.00;;;;;;;4.99;56.33;100793.75;5255258;33;33678;-85
2023/03/16 06:58:57;;;;;;;9.15;5.07;;;;;;;4.97;56.85;100785.06;5254782;33;33528;-84
2023/03/16 07:02:00;;;;;;;7.78;4.40;;;;;;;5.09;56.05;100790.28;5257024;33;33998;-84
2023/03/16 07:05:06;;;;;;;8.98;5.00;;;;;;;5.03;55.48;100797.03;5240539;33;34254;-84
2023/03/16 07:08:09;;;;;;;8.98;4.62;;;;;;;5.01;56.24;100796.31;5241500;33;33431;-85
2023/03/16 07:11:13;;;;;;;10.15;5.25;;;;;;;5.19;55.57;100804.56;5238479;33;34083;-84
2023/03/16 07:14:18;;;;;;;13.62;5.28;;;;;;;5.28;55.29;100806.44;5260298;33;34878;-85
2023/03/16 07:17:23;;;;;;;10.65;4.97;;;;;;;5.39;54.87;100811.69;5261526;33;35277;-85
2023/03/16 07:20:27;;;;;;;9.45;5.62;;;;;;;5.58;54.76;100820.75;5245834;33;34343;-84
2023/03/16 07:23:31;;;;;;;7.53;4.80;;;;;;;5.68;55.11;100808.28;5244869;33;33854;-84
2023/03/16 07:26:37;;;;;;;9.35;5.10;;;;;;;5.83;53.80;100819.44;5242376;33;35396;-84
2023/03/16 07:29:42;;;;;;;8.80;4.70;;;;;;;5.73;52.90;100826.56;5254806;33;34723;-84
2023/03/16 07:32:44;;;;;;;9.38;5.15;;;;;;;5.84;53.35;100829.13;5231218;33;33754;-83
2023/03/16 07:35:48;;;;;;;10.40;5.32;;;;;;;5.97;53.38;100827.09;5257924;33;35071;-83
2023/03/16 07:38:51;;;;;;;11.18;5.43;;;;;;;6.27;53.31;100825.31;5238426;33;35245;-85
2023/03/16 07:41:55;;;;;;;8.85;4.78;;;;;;;6.28;52.73;100829.69;5254647;33;33929;-83
2023/03/16 07:45:04;;;;;;;18.92;4.80;;;;;;;6.50;52.94;100826.75;5228018;33;33902;-84
2023/03/16 07:48:07;;;;;;;8.07;5.03;;;;;;;6.56;51.64;100826.19;5253856;33;34812;-83
2023/03/16 07:51:14;;;;;;;7.32;4.80;;;;;;;6.67;51.50;100827.88;5241972;33;33825;-84
2023/03/16 07:54:19;;;;;;;12.57;5.32;;;;;;;6.92;50.86;100828.25;5242934;33;34481;-83
2023/03/16 07:57:22;;;;;;;10.60;5.68;;;;;;;6.96;51.14;100843.03;5252660;33;33651;-84
2023/03/16 08:00:25;;;;;;;10.25;5.22;;;;;;;6.91;51.24;100838.13;5240659;33;34111;-84
2023/03/16 08:03:30;;;;;;;12.18;5.72;;;;;;;6.84;52.32;100844.19;5243306;33;34523;-84
2023/03/16 08:06:34;;;;;;;10.30;5.55;;;;;;;6.83;51.77;100838.00;5229806;33;35435;-83
2023/03/16 08:09:37;;;;;;;9.75;5.68;;;;;;;6.79;52.54;100841.97;5256185;33;33945;-84
2023/03/16 08:12:40;;;;;;;7.80;5.12;;;;;;;6.83;52.19;100843.34;5241699;33;33676;-84
2023/03/16 08:15:49;;;;;;;8.40;4.90;;;;;;;7.07;51.62;100842.88;5253744;33;35011;-84
2023/03/16 08:18:55;;;;;;;8.80;5.00;;;;;;;7.24;50.12;100847.50;5254520;33;34524;-84
2023/03/16 08:22:02;;;;;;;11.25;5.12;;;;;;;7.45;50.01;100859.84;5261434;33;33909;-84
2023/03/16 08:25:11;;;;;;;7.55;4.25;;;;;;;7.59;49.21;100855.88;5246728;33;33773;-84
2023/03/16 08:28:15;;;;;;;9.77;4.60;;;;;;;7.80;47.02;100861.84;5255071;33;33899;-84
2023/03/16 08:31:20;;;;;;;10.82;4.87;;;;;;;7.84;47.05;100862.38;5225771;33;32866;-88
2023/03/16 08:34:24;;;;;;;10.48;4.82;;;;;;;7.64;47.65;100857.13;5253701;33;34831;-90
2023/03/16 08:37:27;;;;;;;8.30;4.50;;;;;;;7.42;47.84;100861.00;5255285;33;34146;-89
2023/03/16 08:40:33;;;;;;;7.45;4.30;;;;;;;7.50;47.36;100854.91;5254697;33;33794;-87
2023/03/16 08:43:36;;;;;;;7.60;4.65;;;;;;;7.56;48.05;100854.31;5242448;33;33842;-86
2023/03/16 08:46:41;;;;;;;8.93;4.90;;;;;;;7.65;46.09;100856.12;5231723;33;34579;-86
2023/03/16 08:49:45;;;;;;;7.28;4.68;;;;;;;7.96;46.31;100855.84;5242221;33;33920;-85
2023/03/16 08:52:51;;;;;;;6.20;4.70;;;;;;;7.88;44.97;100864.63;5231286;33;34388;-83
2023/03/16 08:56:03;;;;;;;7.05;4.75;;;;;;;8.13;46.30;100868.47;5242407;33;34595;-86
2023/03/16 08:59:06;;;;;;;6.05;3.92;;;;;;;8.10;45.91;100871.44;5249443;33;35927;-86
2023/03/16 09:02:19;;;;;;;6.87;4.40;;;;;;;8.05;43.79;100868.34;5242882;33;33536;-85
2023/03/16 09:05:24;;;;;;;11.05;4.47;;;;;;;8.17;44.24;100864.47;5240941;33;34387;-86
2023/03/16 09:08:27;;;;;;;9.80;4.82;;;;;;;8.26;44.22;100864.56;5250147;33;34285;-86
2023/03/16 09:11:33;;;;;;;9.52;4.78;;;;;;;8.26;45.42;100862.72;5246903;33;34697;-86
2023/03/16 09:14:37;;;;;;;8.48;4.53;;;;;;;8.26;45.46;100877.97;5237776;33;34446;-86
2023/03/16 09:17:41;;;;;;;7.28;4.82;;;;;;;8.22;44.63;100882.81;5258507;33;35304;-87
2023/03/16 09:20:46;;;;;;;7.47;4.32;;;;;;;8.36;45.83;100879.59;5256539;33;34356;-87
2023/03/16 09:23:49;;;;;;;7.10;4.00;;;;;;;8.33;45.63;100889.78;5256003;33;34785;-87
2023/03/16 09:26:52;;;;;;;8.77;4.50;;;;;;;8.44;44.19;100886.94;5231099;33;34008;-87
2023/03/16 09:29:58;;;;;;;7.75;5.12;;;;;;;8.51;45.18;100892.53;5234961;33;34106;-87
2023/03/16 09:33:01;;;;;;;7.25;4.60;;;;;;;8.39;45.64;100884.72;5244931;33;34088;-87
2023/03/16 09:36:04;;;;;;;9.05;5.00;;;;;;;8.32;45.00;100894.31;5234533;33;33733;-87
2023/03/16 09:39:07;;;;;;;7.95;4.60;;;;;;;8.36;45.44;100884.13;5263758;33;34046;-87
2023/03/16 09:42:17;;;;;;;7.50;4.62;;;;;;;8.47;45.58;100883.94;5245118;33;34234;-87
2023/03/16 09:45:30;;;;;;;17.35;5.72;;;;;;;8.82;44.86;100885.78;5250670;33;33899;-87
2023/03/16 09:48:36;;;;;;;7.12;3.97;;;;;;;8.82;44.38;100883.09;5263846;33;33954;-88
2023/03/16 09:52:05;;;;;;;6.30;4.07;;;;;;;8.78;41.92;100897.00;5268607;33;34280;-88
2023/03/16 09:55:36;;;;;;;9.93;3.78;;;;;;;9.06;40.43;100895.88;5267344;33;33816;-88
2023/03/16 09:58:39;;;;;;;6.32;3.50;;;;;;;9.13;39.79;100888.06;5256026;33;33654;-88
2023/03/16 10:02:21;;;;;;;8.13;4.28;;;;;;;9.00;39.81;100896.50;5251295;33;34122;-88
2023/03/16 10:05:26;;;;;;;8.80;4.00;;;;;;;9.17;40.23;100893.97;5257740;33;34148;-88
2023/03/16 10:08:38;;;;;;;7.68;3.83;;;;;;;9.31;39.47;100894.25;5249800;33;35207;-87
2023/03/16 10:11:47;;;;;;;7.07;3.97;;;;;;;9.43;39.22;100904.75;5275933;33;34218;-87
2023/03/16 10:15:09;;;;;;;6.32;3.47;;;;;;;9.42;38.54;100900.34;5252417;33;32339;-88
2023/03/16 10:18:17;;;;;;;3.67;3.33;;;;;;;9.56;38.09;100896.25;5268095;33;33888;-88
2023/03/16 10:21:23;;;;;;;;;;;;;;;9.44;37.81;100895.69;5269805;33;34144;-87
2023/03/16 10:24:55;;;;;;;6.97;3.35;;;;;;;9.59;38.04;100886.03;5254978;33;35497;-88
2023/03/16 10:27:58;;;;;;;4.22;3.12;;;;;;;9.70;37.97;100898.34;5245419;33;33072;-92
2023/03/16 10:31:02;;;;;;;7.65;3.50;;;;;;;9.44;37.78;100909.13;5261143;33;35481;-88
2023/03/16 10:34:05;;;;;;;5.93;3.47;;;;;;;9.68;37.76;100897.66;5245150;33;34592;-88
2023/03/16 10:37:12;;;;;;;7.28;3.00;;;;;;;9.76;37.46;100905.78;5258251;33;35564;-88
2023/03/16 10:40:15;;;;;;;7.30;3.60;;;;;;;9.62;36.23;100899.16;5246303;33;34514;-88
2023/03/16 10:43:19;;;;;;;6.47;3.47;;;;;;;9.63;37.13;100900.84;5253060;33;33963;-88
2023/03/16 10:46:26;;;;;;;5.72;3.42;;;;;;;9.96;35.83;100890.25;5258376;33;34222;-88
2023/03/16 10:49:43;;;;;;;4.45;3.12;;;;;;;9.90;35.85;100894.44;5245176;33;33684;-88
2023/03/16 10:52:48;;;;;;;6.75;3.22;;;;;;;9.66;35.68;100900.53;5245913;33;33810;-88
2023/03/16 10:55:57;;;;;;;5.85;3.50;;;;;;;10.17;35.23;100893.38;5245494;33;35572;-87
2023/03/16 10:59:11;;;;;;;6.68;2.95;;;;;;;10.12;35.10;100893.03;5258185;33;35490;-87
2023/03/16 11:02:19;;;;;;;7.10;3.50;;;;;;;10.39;35.05;100883.91;5253203;33;34735;-88
2023/03/16 11:05:22;;;;;;;4.80;3.12;;;;;;;10.47;35.57;100885.78;5260249;33;33908;-88
2023/03/16 11:08:31;;;;;;;5.25;3.33;;;;;;;10.88;33.73;100877.72;5259629;33;33781;-88
2023/03/16 11:11:35;;;;;;;7.40;3.42;;;;;;;11.23;32.92;100879.28;5258751;33;34675;-87
2023/03/16 11:14:48;;;;;;;6.57;3.03;;;;;;;11.26;32.43;100888.84;5246030;33;33641;-88
2023/03/16 11:17:52;;;;;;;4.45;2.65;;;;;;;11.72;32.66;100894.50;5248511;33;33720;-87
2023/03/16 11:21:02;;;;;;;3.12;2.40;;;;;;;11.56;31.37;100885.44;5270701;33;33554;-87
2023/03/16 11:24:23;;;;;;;4.80;3.25;;;;;;;11.49;30.53;100872.81;5263947;33;34342;-87
2023/03/16 11:27:38;;;;;;;5.22;3.00;;;;;;;11.78;30.80;100886.56;5253698;33;34080;-86
2023/03/16 11:30:47;;;;;;;5.37;2.83;;;;;;;11.70;29.77;100886.59;5265722;33;34290;-89
2023/03/16 11:33:53;;;;;;;5.10;2.75;;;;;;;12.00;29.34;100874.22;5264339;33;33783;-86
2023/03/16 11:37:09;;;;;;;3.35;2.55;;;;;;;13.13;29.79;100872.81;5245435;33;34071;-87
2023/03/16 11:40:41;;;;;;;5.97;3.12;;;;;;;14.34;28.19;100866.25;5257922;33;33905;-86
2023/03/16 11:44:11;;;;;;;3.45;2.30;;;;;;;14.39;27.45;100868.34;5258124;33;34031;-87
2023/03/16 11:47:25;;;;;;;3.90;2.40;;;;;;;14.21;26.30;100860.66;5253960;33;34094;-86
2023/03/16 11:50:48;;;;;;;3.28;2.40;;;;;;;15.33;24.71;100854.72;5256569;33;33931;-86
2023/03/16 11:54:17;;;;;;;3.87;2.50;;;;;;;16.23;23.17;100844.78;5255178;33;34095;-86
2023/03/16 11:57:51;;;;;;;5.50;2.70;;;;;;;16.56;24.26;100853.03;5256961;33;34771;-85
2023/03/16 12:01:19;;;;;;;3.83;2.62;;;;;;;17.55;23.00;100837.78;5259576;33;34083;-86
2023/03/16 12:04:43;;;;;;;4.40;2.40;;;;;;;18.90;22.02;100835.97;5255495;33;34118;-86
2023/03/16 12:08:17;;;;;;;2.85;2.20;;;;;;;20.01;19.27;100837.00;5255458;33;33282;-85
2023/03/16 12:11:31;;;;;;;2.85;1.90;;;;;;;21.19;18.05;100841.00;5256352;33;34140;-83
2023/03/16 12:14:45;;;;;;;4.03;1.90;;;;;;;20.95;17.11;100829.19;5257155;33;34309;-84
2023/03/16 12:17:52;;;;;;;2.42;1.52;;;;;;;21.20;17.06;100833.59;5255548;33;34764;-84
2023/03/16 12:21:00;;;;;;;4.75;1.75;;;;;;;21.88;15.20;100827.53;5254021;33;35054;-84
2023/03/16 12:24:11;;;;;;;3.10;1.65;;;;;;;22.02;15.13;100822.59;5256852;33;33789;-84
2023/03/16 12:27:17;;;;;;;3.75;1.52;;;;;;;22.98;14.63;100830.19;5257081;33;34877;-84
2023/03/16 12:31:11;;;;;;;2.40;1.17;;;;;;;23.52;14.71;100827.75;5254814;33;34453;-84
2023/03/16 12:34:28;;;;;;;2.37;1.10;;;;;;;25.59;13.57;100817.50;5185565;34;34153;-84
2023/03/16 12:37:54;;;;;;;2.30;1.17;;;;;;;25.78;12.99;100815.97;5253228;33;34427;-84
2023/03/16 12:41:15;;;;;;;1.77;1.08;;;;;;;27.46;11.57;100816.53;5254770;33;33954;-84
2023/03/16 12:44:44;;;;;;;2.12;1.42;;;;;;;25.69;12.18;100823.09;5253167;33;34733;-84
2023/03/16 12:48:07;;;;;;;2.80;1.40;;;;;;;24.72;12.23;100819.59;5241686;33;34822;-85
2023/03/16 12:51:11;;;;;;;6.25;1.60;;;;;;;24.12;12.78;100812.31;5249374;33;34170;-85
2023/03/16 12:54:22;;;;;;;1.45;0.90;;;;;;;24.24;12.67;100818.50;5241894;33;34003;-85
2023/03/16 12:57:26;;;;;;;1.83;1.25;;;;;;;24.24;12.15;100825.94;5254090;33;34120;-89
2023/03/16 13:00:40;;;;;;;6.35;1.62;;;;;;;23.73;12.75;100831.66;5232636;33;34143;-89
2023/03/16 13:03:47;;;;;;;1.42;1.20;;;;;;;22.67;13.02;100826.91;5263535;33;34018;-85
2023/03/16 13:07:00;;;;;;;1.60;1.40;;;;;;;19.19;15.13;100826.28;5263542;33;33994;-85
2023/03/16 13:10:15;;;;;;;2.42;1.30;;;;;;;21.12;14.36;100823.84;5270761;33;33955;-84
2023/03/16 13:13:24;;;;;;;2.85;1.05;;;;;;;24.36;12.03;100816.44;5253227;33;33965;-84
2023/03/16 13:16:31;;;;;;;;;;;;;;;23.45;12.03;100816.91;5250701;33;32616;-84
2023/03/16 13:19:36;;;;;;;3.10;1.27;;;;;;;25.88;11.31;100825.41;5259196;33;34411;-84
2023/03/16 13:23:06;;;;;;;1.65;0.85;;;;;;;26.04;10.89;100821.62;5232715;33;34891;-84
2023/03/16 13:26:22;;;;;;;2.83;1.10;;;;;;;27.35;10.32;100804.69;5254492;33;33954;-84
2023/03/16 13:29:30;;;;;;;1.10;0.85;;;;;;;26.77;10.12;100813.25;5254391;33;33993;-85
2023/03/16 13:32:34;;;;;;;1.08;0.90;;;;;;;27.03;9.82;100810.50;5253364;33;33616;-83
2023/03/16 13:35:38;;;;;;;2.60;0.90;;;;;;;27.28;9.89;100809.66;5245388;33;33949;-83
2023/03/16 13:38:41;;;;;;;1.55;0.88;;;;;;;23.88;11.30;100825.50;5248792;33;33981;-84
2023/03/16 13:42:13;;;;;;;1.23;1.00;;;;;;;24.00;11.46;100820.72;5244550;33;34787;-84
2023/03/16 13:45:22;;;;;;;1.92;1.10;;;;;;;22.36;11.70;100820.84;5253149;33;34350;-88
2023/03/16 13:48:25;;;;;;;1.48;1.10;;;;;;;22.56;12.13;100817.66;5266852;33;33846;-85
2023/03/16 13:51:33;;;;;;;2.25;1.02;;;;;;;22.70;12.25;100822.81;5254887;33;33902;-85
2023/03/16 13:54:36;;;;;;;2.60;1.10;;;;;;;21.40;12.35;100823.16;5260065;33;33692;-85
2023/03/16 13:57:40;;;;;;;1.87;0.95;;;;;;;20.63;12.99;100814.97;5262087;33;33652;-84
2023/03/16 14:00:44;;;;;;;4.05;1.12;;;;;;;20.09;13.82;100811.25;5275357;33;34062;-84
2023/03/16 14:03:48;;;;;;;2.70;1.37;;;;;;;19.70;13.98;100825.16;5255117;33;34224;-84
2023/03/16 14:06:58;;;;;;;3.70;1.35;;;;;;;18.86;14.88;100828.44;5245128;33;33653;-84
2023/03/16 14:10:04;;;;;;;1.65;1.40;;;;;;;17.06;15.81;100822.81;5257875;33;33564;-85
2023/03/16 14:13:22;;;;;;;5.07;1.58;;;;;;;14.64;18.09;100822.81;5259688;33;34404;-84
2023/03/16 14:16:27;;;;;;;;;;;;;;;14.41;18.08;100831.09;5258315;33;34754;-85
2023/03/16 14:19:41;;;;;;;4.30;1.55;;;;;;;13.90;18.10;100821.13;5267621;33;34488;-84
2023/03/16 14:22:44;;;;;;;2.25;1.20;;;;;;;14.44;19.11;100826.13;5269658;33;34246;-84
2023/03/16 14:25:48;;;;;;;2.50;1.27;;;;;;;14.09;18.59;100826.97;5246348;33;34293;-86
2023/03/16 14:28:56;;;;;;;1.23;1.17;;;;;;;12.93;17.84;100840.06;5249688;33;34377;-85
2023/03/16 14:31:59;;;;;;;1.73;1.02;;;;;;;12.84;18.02;100835.72;5266598;33;34433;-85
2023/03/16 14:35:19;;;;;;;1.12;1.05;;;;;;;11.89;17.77;100831.41;5248711;33;34299;-85
2023/03/16 14:38:27;;;;;;;;;;;;;;;11.63;18.05;100841.59;5259868;33;34560;-85
2023/03/16 14:41:32;;;;;;;2.42;1.52;;;;;;;11.08;18.98;100841.34;5252508;33;34085;-84
2023/03/16 14:44:37;;;;;;;2.35;1.35;;;;;;;10.79;20.17;100843.72;5269727;33;34246;-85
2023/03/16 14:47:43;;;;;;;4.05;1.30;;;;;;;10.71;21.08;100849.97;5285219;33;34282;-85
2023/03/16 14:50:53;;;;;;;2.92;1.52;;;;;;;10.66;21.52;100852.31;5264499;33;36748;-86
2023/03/16 14:53:56;;;;;;;1.70;1.60;;;;;;;10.47;21.63;100853.47;5257082;33;34934;-90
2023/03/16 14:57:02;;;;;;;4.95;1.70;;;;;;;10.24;22.62;100850.53;5250182;33;34413;-88
2023/03/16 15:00:08;;;;;;;3.78;1.87;;;;;;;10.09;22.91;100858.38;5260496;33;226175;-87
2023/03/16 15:03:16;;;;;;;2.12;1.45;;;;;;;9.93;23.15;100864.53;5255981;33;34543;-85
2023/03/16 15:06:20;;;;;;;1.62;1.42;;;;;;;9.79;22.62;100858.91;5266256;33;34451;-86
2023/03/16 15:09:33;;;;;;;2.83;2.35;;;;;;;9.54;22.63;100856.12;5254345;33;33937;-85
2023/03/16 15:12:36;;;;;;;3.15;1.67;;;;;;;9.57;23.22;100865.72;5266280;33;34400;-84
2023/03/16 15:15:41;;;;;;;1.67;1.33;;;;;;;9.56;22.62;100853.25;5259951;33;33835;-84
2023/03/16 15:18:45;;;;;;;1.40;1.30;;;;;;;9.29;21.65;100858.62;5233962;33;34366;-84
2023/03/16 15:21:48;;;;;;;3.10;1.50;;;;;;;9.24;22.14;100860.09;5253434;33;33466;-86
2023/03/16 15:24:51;;;;;;;2.45;1.30;;;;;;;9.36;22.04;100866.06;5243708;33;34257;-86
2023/03/16 15:27:54;;;;;;;1.60;1.30;;;;;;;9.25;22.71;100870.69;5248393;33;35170;-87
2023/03/16 15:30:59;;;;;;;1.15;1.12;;;;;;;9.12;21.78;100874.78;5254609;33;35317;-87
2023/03/16 15:34:02;;;;;;;1.65;1.52;;;;;;;9.01;22.38;100868.69;5254587;33;34785;-86
2023/03/16 15:37:05;;;;;;;2.17;1.58;;;;;;;8.93;22.11;100878.50;5245296;33;34734;-87
2023/03/16 15:40:18;;;;;;;1.65;1.50;;;;;;;8.89;22.46;100883.31;5242000;33;33808;-86
2023/03/16 15:43:23;;;;;;;1.30;1.20;;;;;;;8.89;22.57;100880.63;5254580;33;33901;-87
2023/03/16 15:46:27;;;;;;;2.33;1.30;;;;;;;8.94;22.20;100885.56;5267605;33;34654;-84
2023/03/16 15:49:30;;;;;;;1.70;1.20;;;;;;;8.77;21.93;100897.97;5272018;33;34193;-85
2023/03/16 15:52:50;;;;;;;2.05;1.62;;;;;;;8.84;22.61;100896.38;5260855;33;34471;-85
2023/03/16 15:56:07;;;;;;;1.80;1.62;;;;;;;8.75;22.80;100902.69;5262055;33;33749;-85
2023/03/16 15:59:15;;;;;;;6.35;1.50;;;;;;;8.74;22.82;100899.13;5254630;33;33683;-85
2023/03/16 16:02:28;;;;;;;3.03;1.50;;;;;;;8.68;22.87;100898.91;5254544;33;33606;-86
2023/03/16 16:05:32;;;;;;;2.12;1.45;;;;;;;8.57;22.91;100908.88;5241239;33;34261;-85
2023/03/16 16:08:34;;;;;;;1.95;1.33;;;;;;;8.53;23.15;100901.28;5254143;33;34010;-85
2023/03/16 16:11:39;;;;;;;4.93;1.70;;;;;;;8.44;23.48;100907.56;5256570;33;34511;-89
2023/03/16 16:14:41;;;;;;;3.40;1.70;;;;;;;8.29;24.50;100910.72;5261741;33;34135;-90
2023/03/16 16:17:44;;;;;;;3.90;1.90;;;;;;;8.25;24.06;100916.50;5243971;33;34036;-90
2023/03/16 16:21:14;;;;;;;3.22;2.15;;;;;;;8.24;24.34;100920.19;5243495;33;33516;-86
2023/03/16 16:24:18;;;;;;;1.65;1.55;;;;;;;8.15;24.91;100938.03;5254233;33;35323;-86
2023/03/16 16:27:20;;;;;;;3.08;1.50;;;;;;;8.21;24.64;100934.75;5241463;33;34063;-85
2023/03/16 16:30:27;;;;;;;3.17;1.85;;;;;;;8.13;24.34;100938.19;5242217;33;34716;-86
2023/03/16 16:33:32;;;;;;;1.85;1.62;;;;;;;8.06;24.21;100939.75;5253987;33;33997;-85
2023/03/16 16:36:35;;;;;;;2.40;1.73;;;;;;;7.87;24.21;100950.56;5254599;33;34724;-86
2023/03/16 16:39:39;;;;;;;1.75;1.58;;;;;;;7.82;24.20;100953.69;5254938;33;34020;-85
2023/03/16 16:42:43;;;;;;;2.78;1.87;;;;;;;7.73;25.06;100957.25;5243860;33;34086;-85
2023/03/16 16:45:47;;;;;;;1.98;1.62;;;;;;;7.73;24.42;100963.44;5242991;33;33965;-86
2023/03/16 16:48:57;;;;;;;3.30;1.60;;;;;;;7.65;24.81;100962.47;5255209;33;34133;-86
2023/03/16 16:52:01;;;;;;;2.92;1.98;;;;;;;7.52;25.37;100961.91;5265768;33;35398;-86
2023/03/16 16:55:04;;;;;;;5.47;1.65;;;;;;;7.48;25.73;100966.72;5256190;33;34415;-86
2023/03/16 16:58:08;;;;;;;3.72;1.95;;;;;;;7.43;25.73;100968.97;5255382;33;33466;-86
